sensor_id;sensor_type;location;lat;lon;timestamp;P1;durP1;ratioP1;P2;durP2;ratioP2
17510;SDS011;8873;48.818;9.422;2022-07-04T00:00:50;2.00;;;1.90;;
17510;SDS011;8873;48.818;9.422;2022-07-04T00:03:17;2.10;;;2.00;;
17510;SDS011;8873;48.818;9.422;2022-07-04T00:05:45;2.75;;;2.05;;
17510;SDS011;8873;48.818;9.422;2022-07-04T00:08:16;2.67;;;1.90;;
17510;SDS011;8873;48.818;9.422;2022-07-04T00:10:50;4.13;;;1.85;;
17510;SDS011;8873;48.818;9.422;2022-07-04T00:13:18;3.90;;;2.00;;
17510;SDS011;8873;48.818;9.422;2022-07-04T00:15:46;3.58;;;1.90;;
17510;SDS011;8873;48.818;9.422;2022-07-04T00:18:15;2.47;;;1.85;;
17510;SDS011;8873;48.818;9.422;2022-07-04T00:20:43;1.88;;;1.77;;
17510;SDS011;8873;48.818;9.422;2022-07-04T00:23:12;3.90;;;1.70;;
17510;SDS011;8873;48.818;9.422;2022-07-04T00:25:39;1.77;;;1.67;;
17510;SDS011;8873;48.818;9.422;2022-07-04T00:28:15;2.10;;;2.00;;
17510;SDS011;8873;48.818;9.422;2022-07-04T00:30:50;3.90;;;2.05;;
17510;SDS011;8873;48.818;9.422;2022-07-04T00:33:18;2.35;;;1.83;;
17510;SDS011;8873;48.818;9.422;2022-07-04T00:35:46;2.85;;;2.10;;
17510;SDS011;8873;48.818;9.422;2022-07-04T00:38:14;2.90;;;1.80;;
17510;SDS011;8873;48.818;9.422;2022-07-04T00:40:41;3.58;;;1.90;;
17510;SDS011;8873;48.818;9.422;2022-07-04T00:43:09;2.55;;;1.95;;
17510;SDS011;8873;48.818;9.422;2022-07-04T00:45:39;2.55;;;2.20;;
17510;SDS011;8873;48.818;9.422;2022-07-04T00:48:07;4.10;;;2.15;;
17510;SDS011;8873;48.818;9.422;2022-07-04T00:50:35;2.25;;;2.00;;
17510;SDS011;8873;48.818;9.422;2022-07-04T00:53:03;2.28;;;2.00;;
17510;SDS011;8873;48.818;9.422;2022-07-04T00:55:31;2.15;;;1.95;;
17510;SDS011;8873;48.818;9.422;2022-07-04T00:57:59;2.00;;;1.90;;
17510;SDS011;8873;48.818;9.422;2022-07-04T01:00:26;1.90;;;1.85;;
17510;SDS011;8873;48.818;9.422;2022-07-04T01:02:55;3.55;;;2.30;;
17510;SDS011;8873;48.818;9.422;2022-07-04T01:05:24;5.80;;;2.40;;
17510;SDS011;8873;48.818;9.422;2022-07-04T01:07:51;6.22;;;2.30;;
17510;SDS011;8873;48.818;9.422;2022-07-04T01:10:20;3.35;;;2.00;;
17510;SDS011;8873;48.818;9.422;2022-07-04T01:12:48;2.38;;;2.08;;
17510;SDS011;8873;48.818;9.422;2022-07-04T01:15:15;5.07;;;2.30;;
17510;SDS011;8873;48.818;9.422;2022-07-04T01:17:43;5.55;;;2.65;;
17510;SDS011;8873;48.818;9.422;2022-07-04T01:20:13;2.08;;;1.92;;
17510;SDS011;8873;48.818;9.422;2022-07-04T01:22:41;2.63;;;2.08;;
17510;SDS011;8873;48.818;9.422;2022-07-04T01:25:09;4.68;;;2.17;;
17510;SDS011;8873;48.818;9.422;2022-07-04T01:27:36;3.35;;;2.00;;
17510;SDS011;8873;48.818;9.422;2022-07-04T01:30:04;2.55;;;2.20;;
17510;SDS011;8873;48.818;9.422;2022-07-04T01:32:34;2.65;;;2.08;;
17510;SDS011;8873;48.818;9.422;2022-07-04T01:35:02;2.92;;;2.10;;
17510;SDS011;8873;48.818;9.422;2022-07-04T01:37:31;2.83;;;2.40;;
17510;SDS011;8873;48.818;9.422;2022-07-04T01:40:00;4.72;;;2.10;;
17510;SDS011;8873;48.818;9.422;2022-07-04T01:42:28;2.63;;;2.00;;
17510;SDS011;8873;48.818;9.422;2022-07-04T01:44:56;2.17;;;2.08;;
17510;SDS011;8873;48.818;9.422;2022-07-04T01:47:24;2.40;;;2.30;;
17510;SDS011;8873;48.818;9.422;2022-07-04T01:49:52;2.35;;;1.95;;
17510;SDS011;8873;48.818;9.422;2022-07-04T01:52:20;3.38;;;2.40;;
17510;SDS011;8873;48.818;9.422;2022-07-04T01:54:57;2.15;;;1.92;;
17510;SDS011;8873;48.818;9.422;2022-07-04T01:57:25;6.47;;;2.50;;
17510;SDS011;8873;48.818;9.422;2022-07-04T01:59:54;2.28;;;2.10;;
17510;SDS011;8873;48.818;9.422;2022-07-04T02:02:39;2.50;;;2.20;;
17510;SDS011;8873;48.818;9.422;2022-07-04T02:05:07;2.85;;;2.22;;
17510;SDS011;8873;48.818;9.422;2022-07-04T02:07:35;4.35;;;2.30;;
17510;SDS011;8873;48.818;9.422;2022-07-04T02:10:05;5.13;;;2.17;;
17510;SDS011;8873;48.818;9.422;2022-07-04T02:12:33;3.22;;;2.17;;
17510;SDS011;8873;48.818;9.422;2022-07-04T02:15:19;3.03;;;2.33;;
17510;SDS011;8873;48.818;9.422;2022-07-04T02:17:46;6.93;;;2.50;;
17510;SDS011;8873;48.818;9.422;2022-07-04T02:20:14;2.58;;;2.30;;
17510;SDS011;8873;48.818;9.422;2022-07-04T02:22:43;6.53;;;2.40;;
17510;SDS011;8873;48.818;9.422;2022-07-04T02:25:13;4.72;;;2.33;;
17510;SDS011;8873;48.818;9.422;2022-07-04T02:27:45;2.22;;;2.00;;
17510;SDS011;8873;48.818;9.422;2022-07-04T02:30:12;4.30;;;2.30;;
17510;SDS011;8873;48.818;9.422;2022-07-04T02:32:40;3.53;;;2.30;;
17510;SDS011;8873;48.818;9.422;2022-07-04T02:35:08;4.07;;;2.28;;
17510;SDS011;8873;48.818;9.422;2022-07-04T02:37:37;3.40;;;2.00;;
17510;SDS011;8873;48.818;9.422;2022-07-04T02:40:06;4.60;;;2.17;;
17510;SDS011;8873;48.818;9.422;2022-07-04T02:42:36;5.25;;;2.38;;
17510;SDS011;8873;48.818;9.422;2022-07-04T02:45:04;2.25;;;2.10;;
17510;SDS011;8873;48.818;9.422;2022-07-04T02:47:33;2.45;;;2.25;;
17510;SDS011;8873;48.818;9.422;2022-07-04T02:50:01;3.55;;;2.35;;
17510;SDS011;8873;48.818;9.422;2022-07-04T02:52:30;4.00;;;2.63;;
17510;SDS011;8873;48.818;9.422;2022-07-04T02:55:00;2.08;;;1.98;;
17510;SDS011;8873;48.818;9.422;2022-07-04T02:57:28;3.33;;;1.98;;
17510;SDS011;8873;48.818;9.422;2022-07-04T02:59:57;3.25;;;2.60;;
17510;SDS011;8873;48.818;9.422;2022-07-04T03:02:25;5.45;;;2.30;;
17510;SDS011;8873;48.818;9.422;2022-07-04T03:04:54;9.13;;;2.88;;
17510;SDS011;8873;48.818;9.422;2022-07-04T03:07:22;3.33;;;2.42;;
17510;SDS011;8873;48.818;9.422;2022-07-04T03:09:49;3.33;;;2.40;;
17510;SDS011;8873;48.818;9.422;2022-07-04T03:12:17;2.47;;;2.35;;
17510;SDS011;8873;48.818;9.422;2022-07-04T03:14:44;3.53;;;2.53;;
17510;SDS011;8873;48.818;9.422;2022-07-04T03:17:14;3.67;;;2.70;;
17510;SDS011;8873;48.818;9.422;2022-07-04T03:19:42;2.83;;;2.60;;
17510;SDS011;8873;48.818;9.422;2022-07-04T03:22:10;5.82;;;2.70;;
17510;SDS011;8873;48.818;9.422;2022-07-04T03:24:37;6.05;;;2.53;;
17510;SDS011;8873;48.818;9.422;2022-07-04T03:27:06;2.28;;;2.17;;
17510;SDS011;8873;48.818;9.422;2022-07-04T03:29:33;2.55;;;2.00;;
17510;SDS011;8873;48.818;9.422;2022-07-04T03:32:04;2.63;;;2.42;;
17510;SDS011;8873;48.818;9.422;2022-07-04T03:34:33;3.50;;;2.50;;
17510;SDS011;8873;48.818;9.422;2022-07-04T03:37:02;3.55;;;2.40;;
17510;SDS011;8873;48.818;9.422;2022-07-04T03:39:29;2.45;;;2.25;;
17510;SDS011;8873;48.818;9.422;2022-07-04T03:41:57;2.50;;;2.40;;
17510;SDS011;8873;48.818;9.422;2022-07-04T03:44:28;2.78;;;2.53;;
17510;SDS011;8873;48.818;9.422;2022-07-04T03:46:56;2.90;;;2.50;;
17510;SDS011;8873;48.818;9.422;2022-07-04T03:49:27;4.13;;;2.53;;
17510;SDS011;8873;48.818;9.422;2022-07-04T03:51:56;3.53;;;2.40;;
17510;SDS011;8873;48.818;9.422;2022-07-04T03:54:24;2.80;;;2.50;;
17510;SDS011;8873;48.818;9.422;2022-07-04T03:56:55;3.05;;;2.40;;
17510;SDS011;8873;48.818;9.422;2022-07-04T03:59:22;2.75;;;2.33;;
17510;SDS011;8873;48.818;9.422;2022-07-04T04:01:50;2.88;;;2.45;;
17510;SDS011;8873;48.818;9.422;2022-07-04T04:04:17;2.60;;;2.40;;
17510;SDS011;8873;48.818;9.422;2022-07-04T04:07:04;4.05;;;2.42;;
17510;SDS011;8873;48.818;9.422;2022-07-04T04:09:32;3.15;;;2.75;;
17510;SDS011;8873;48.818;9.422;2022-07-04T04:12:00;3.38;;;2.25;;
17510;SDS011;8873;48.818;9.422;2022-07-04T04:14:28;2.72;;;2.40;;
17510;SDS011;8873;48.818;9.422;2022-07-04T04:16:56;2.33;;;2.13;;
17510;SDS011;8873;48.818;9.422;2022-07-04T04:19:25;3.58;;;2.45;;
17510;SDS011;8873;48.818;9.422;2022-07-04T04:21:53;4.63;;;2.30;;
17510;SDS011;8873;48.818;9.422;2022-07-04T04:24:22;3.22;;;2.20;;
17510;SDS011;8873;48.818;9.422;2022-07-04T04:26:50;3.72;;;2.50;;
17510;SDS011;8873;48.818;9.422;2022-07-04T04:29:17;2.92;;;2.38;;
17510;SDS011;8873;48.818;9.422;2022-07-04T04:31:45;2.60;;;2.40;;
17510;SDS011;8873;48.818;9.422;2022-07-04T04:34:13;3.33;;;2.47;;
17510;SDS011;8873;48.818;9.422;2022-07-04T04:36:40;2.63;;;2.30;;
17510;SDS011;8873;48.818;9.422;2022-07-04T04:39:08;2.55;;;2.35;;
17510;SDS011;8873;48.818;9.422;2022-07-04T04:41:38;3.70;;;2.38;;
17510;SDS011;8873;48.818;9.422;2022-07-04T04:44:06;5.05;;;2.88;;
17510;SDS011;8873;48.818;9.422;2022-07-04T04:46:37;3.72;;;2.60;;
17510;SDS011;8873;48.818;9.422;2022-07-04T04:49:05;2.90;;;2.60;;
17510;SDS011;8873;48.818;9.422;2022-07-04T04:51:33;3.70;;;2.58;;
17510;SDS011;8873;48.818;9.422;2022-07-04T04:54:00;4.97;;;2.45;;
17510;SDS011;8873;48.818;9.422;2022-07-04T04:56:28;2.75;;;2.45;;
17510;SDS011;8873;48.818;9.422;2022-07-04T04:58:57;5.03;;;2.47;;
17510;SDS011;8873;48.818;9.422;2022-07-04T05:01:26;2.92;;;2.72;;
17510;SDS011;8873;48.818;9.422;2022-07-04T05:04:07;2.67;;;2.55;;
17510;SDS011;8873;48.818;9.422;2022-07-04T05:06:35;6.32;;;2.55;;
17510;SDS011;8873;48.818;9.422;2022-07-04T05:09:03;3.60;;;2.75;;
17510;SDS011;8873;48.818;9.422;2022-07-04T05:11:34;3.45;;;2.88;;
17510;SDS011;8873;48.818;9.422;2022-07-04T05:14:08;8.00;;;2.65;;
17510;SDS011;8873;48.818;9.422;2022-07-04T05:16:36;2.78;;;2.60;;
17510;SDS011;8873;48.818;9.422;2022-07-04T05:19:04;3.30;;;2.63;;
17510;SDS011;8873;48.818;9.422;2022-07-04T05:21:34;4.53;;;2.58;;
17510;SDS011;8873;48.818;9.422;2022-07-04T05:24:03;6.95;;;2.88;;
17510;SDS011;8873;48.818;9.422;2022-07-04T05:26:31;5.32;;;2.63;;
17510;SDS011;8873;48.818;9.422;2022-07-04T05:28:59;2.58;;;2.38;;
17510;SDS011;8873;48.818;9.422;2022-07-04T05:31:29;4.38;;;2.58;;
17510;SDS011;8873;48.818;9.422;2022-07-04T05:33:57;7.47;;;2.70;;
17510;SDS011;8873;48.818;9.422;2022-07-04T05:36:25;2.80;;;2.60;;
17510;SDS011;8873;48.818;9.422;2022-07-04T05:38:55;4.97;;;2.50;;
17510;SDS011;8873;48.818;9.422;2022-07-04T05:41:23;4.90;;;2.85;;
17510;SDS011;8873;48.818;9.422;2022-07-04T05:43:52;10.07;;;2.83;;
17510;SDS011;8873;48.818;9.422;2022-07-04T05:46:24;4.72;;;2.85;;
17510;SDS011;8873;48.818;9.422;2022-07-04T05:48:55;4.43;;;2.97;;
17510;SDS011;8873;48.818;9.422;2022-07-04T05:51:23;3.40;;;2.50;;
17510;SDS011;8873;48.818;9.422;2022-07-04T05:53:51;4.97;;;2.75;;
17510;SDS011;8873;48.818;9.422;2022-07-04T05:56:19;5.13;;;2.67;;
17510;SDS011;8873;48.818;9.422;2022-07-04T05:58:47;3.42;;;2.60;;
17510;SDS011;8873;48.818;9.422;2022-07-04T06:01:14;5.10;;;2.63;;
17510;SDS011;8873;48.818;9.422;2022-07-04T06:03:43;3.45;;;2.45;;
17510;SDS011;8873;48.818;9.422;2022-07-04T06:06:12;5.38;;;2.67;;
17510;SDS011;8873;48.818;9.422;2022-07-04T06:08:40;3.92;;;2.47;;
17510;SDS011;8873;48.818;9.422;2022-07-04T06:11:07;4.40;;;2.47;;
17510;SDS011;8873;48.818;9.422;2022-07-04T06:13:35;2.83;;;2.30;;
17510;SDS011;8873;48.818;9.422;2022-07-04T06:16:03;5.13;;;2.60;;
17510;SDS011;8873;48.818;9.422;2022-07-04T06:18:31;3.90;;;2.55;;
17510;SDS011;8873;48.818;9.422;2022-07-04T06:20:58;5.30;;;2.40;;
17510;SDS011;8873;48.818;9.422;2022-07-04T06:23:27;4.45;;;2.30;;
17510;SDS011;8873;48.818;9.422;2022-07-04T06:25:55;3.35;;;2.60;;
17510;SDS011;8873;48.818;9.422;2022-07-04T06:28:24;5.38;;;2.30;;
17510;SDS011;8873;48.818;9.422;2022-07-04T06:31:12;2.40;;;2.20;;
17510;SDS011;8873;48.818;9.422;2022-07-04T06:33:40;2.28;;;2.08;;
17510;SDS011;8873;48.818;9.422;2022-07-04T06:36:22;5.05;;;2.78;;
17510;SDS011;8873;48.818;9.422;2022-07-04T06:38:52;2.78;;;2.50;;
17510;SDS011;8873;48.818;9.422;2022-07-04T06:41:20;5.45;;;2.53;;
17510;SDS011;8873;48.818;9.422;2022-07-04T06:43:47;4.28;;;2.50;;
17510;SDS011;8873;48.818;9.422;2022-07-04T06:46:15;12.65;;;3.15;;
17510;SDS011;8873;48.818;9.422;2022-07-04T06:48:43;3.60;;;2.50;;
17510;SDS011;8873;48.818;9.422;2022-07-04T06:51:10;3.53;;;2.60;;
17510;SDS011;8873;48.818;9.422;2022-07-04T06:53:40;3.72;;;2.55;;
17510;SDS011;8873;48.818;9.422;2022-07-04T06:56:09;6.00;;;2.72;;
17510;SDS011;8873;48.818;9.422;2022-07-04T06:58:37;7.63;;;2.65;;
17510;SDS011;8873;48.818;9.422;2022-07-04T07:01:05;4.63;;;2.55;;
17510;SDS011;8873;48.818;9.422;2022-07-04T07:03:33;6.45;;;2.47;;
17510;SDS011;8873;48.818;9.422;2022-07-04T07:06:02;2.50;;;2.30;;
17510;SDS011;8873;48.818;9.422;2022-07-04T07:08:30;2.47;;;2.28;;
17510;SDS011;8873;48.818;9.422;2022-07-04T07:10:57;6.75;;;2.30;;
17510;SDS011;8873;48.818;9.422;2022-07-04T07:13:41;9.43;;;2.60;;
17510;SDS011;8873;48.818;9.422;2022-07-04T07:16:09;2.00;;;1.90;;
17510;SDS011;8873;48.818;9.422;2022-07-04T07:18:37;3.35;;;2.80;;
17510;SDS011;8873;48.818;9.422;2022-07-04T07:21:05;2.58;;;2.38;;
17510;SDS011;8873;48.818;9.422;2022-07-04T07:23:32;4.13;;;2.70;;
17510;SDS011;8873;48.818;9.422;2022-07-04T07:26:01;3.42;;;2.63;;
17510;SDS011;8873;48.818;9.422;2022-07-04T07:28:28;2.95;;;2.53;;
17510;SDS011;8873;48.818;9.422;2022-07-04T07:30:57;2.65;;;2.45;;
17510;SDS011;8873;48.818;9.422;2022-07-04T07:33:25;3.60;;;2.60;;
17510;SDS011;8873;48.818;9.422;2022-07-04T07:35:53;2.60;;;2.40;;
17510;SDS011;8873;48.818;9.422;2022-07-04T07:38:21;4.78;;;2.90;;
17510;SDS011;8873;48.818;9.422;2022-07-04T07:40:49;4.03;;;2.50;;
17510;SDS011;8873;48.818;9.422;2022-07-04T07:43:17;7.03;;;2.47;;
17510;SDS011;8873;48.818;9.422;2022-07-04T07:45:45;11.57;;;2.63;;
17510;SDS011;8873;48.818;9.422;2022-07-04T07:48:15;6.63;;;2.75;;
17510;SDS011;8873;48.818;9.422;2022-07-04T07:50:43;4.93;;;2.70;;
17510;SDS011;8873;48.818;9.422;2022-07-04T07:53:10;2.53;;;2.33;;
17510;SDS011;8873;48.818;9.422;2022-07-04T07:55:38;3.08;;;2.30;;
17510;SDS011;8873;48.818;9.422;2022-07-04T07:58:06;6.95;;;2.50;;
17510;SDS011;8873;48.818;9.422;2022-07-04T08:00:34;4.15;;;2.30;;
17510;SDS011;8873;48.818;9.422;2022-07-04T08:03:22;3.78;;;2.30;;
17510;SDS011;8873;48.818;9.422;2022-07-04T08:06:08;4.60;;;2.50;;
17510;SDS011;8873;48.818;9.422;2022-07-04T08:08:36;3.03;;;2.20;;
17510;SDS011;8873;48.818;9.422;2022-07-04T08:11:04;3.17;;;2.38;;
17510;SDS011;8873;48.818;9.422;2022-07-04T08:13:32;5.80;;;2.70;;
17510;SDS011;8873;48.818;9.422;2022-07-04T08:16:01;3.63;;;2.22;;
17510;SDS011;8873;48.818;9.422;2022-07-04T08:18:35;3.40;;;2.33;;
17510;SDS011;8873;48.818;9.422;2022-07-04T08:21:06;3.38;;;2.60;;
17510;SDS011;8873;48.818;9.422;2022-07-04T08:23:40;4.30;;;2.65;;
17510;SDS011;8873;48.818;9.422;2022-07-04T08:26:28;7.63;;;2.72;;
17510;SDS011;8873;48.818;9.422;2022-07-04T08:28:56;2.85;;;2.45;;
17510;SDS011;8873;48.818;9.422;2022-07-04T08:31:26;6.90;;;2.88;;
17510;SDS011;8873;48.818;9.422;2022-07-04T08:34:15;3.42;;;2.17;;
17510;SDS011;8873;48.818;9.422;2022-07-04T08:36:43;6.95;;;2.47;;
17510;SDS011;8873;48.818;9.422;2022-07-04T08:39:10;2.53;;;2.30;;
17510;SDS011;8873;48.818;9.422;2022-07-04T08:41:39;2.85;;;2.20;;
17510;SDS011;8873;48.818;9.422;2022-07-04T08:44:08;2.70;;;2.25;;
17510;SDS011;8873;48.818;9.422;2022-07-04T08:46:40;6.70;;;2.50;;
17510;SDS011;8873;48.818;9.422;2022-07-04T08:49:10;7.07;;;2.35;;
17510;SDS011;8873;48.818;9.422;2022-07-04T08:51:43;4.13;;;2.20;;
17510;SDS011;8873;48.818;9.422;2022-07-04T08:54:11;2.78;;;2.50;;
17510;SDS011;8873;48.818;9.422;2022-07-04T08:56:54;7.63;;;2.55;;
17510;SDS011;8873;48.818;9.422;2022-07-04T08:59:40;4.18;;;2.53;;
17510;SDS011;8873;48.818;9.422;2022-07-04T09:02:12;7.63;;;2.55;;
17510;SDS011;8873;48.818;9.422;2022-07-04T09:04:41;4.38;;;2.55;;
17510;SDS011;8873;48.818;9.422;2022-07-04T09:07:14;6.20;;;2.55;;
17510;SDS011;8873;48.818;9.422;2022-07-04T09:09:42;4.55;;;2.40;;
17510;SDS011;8873;48.818;9.422;2022-07-04T09:12:17;2.50;;;2.30;;
17510;SDS011;8873;48.818;9.422;2022-07-04T09:14:44;3.17;;;2.80;;
17510;SDS011;8873;48.818;9.422;2022-07-04T09:17:13;2.47;;;2.28;;
17510;SDS011;8873;48.818;9.422;2022-07-04T09:19:41;4.05;;;2.33;;
17510;SDS011;8873;48.818;9.422;2022-07-04T09:22:09;4.65;;;2.70;;
17510;SDS011;8873;48.818;9.422;2022-07-04T09:24:47;5.15;;;2.42;;
17510;SDS011;8873;48.818;9.422;2022-07-04T09:27:31;3.97;;;2.33;;
17510;SDS011;8873;48.818;9.422;2022-07-04T09:30:00;3.00;;;2.40;;
17510;SDS011;8873;48.818;9.422;2022-07-04T09:32:35;3.40;;;2.55;;
17510;SDS011;8873;48.818;9.422;2022-07-04T09:35:04;4.28;;;2.75;;
17510;SDS011;8873;48.818;9.422;2022-07-04T09:37:36;7.53;;;2.60;;
17510;SDS011;8873;48.818;9.422;2022-07-04T09:40:07;2.50;;;2.25;;
17510;SDS011;8873;48.818;9.422;2022-07-04T09:42:36;3.22;;;2.70;;
17510;SDS011;8873;48.818;9.422;2022-07-04T09:45:07;6.00;;;2.28;;
17510;SDS011;8873;48.818;9.422;2022-07-04T09:47:37;4.18;;;2.70;;
17510;SDS011;8873;48.818;9.422;2022-07-04T09:50:06;2.38;;;2.20;;
17510;SDS011;8873;48.818;9.422;2022-07-04T09:52:43;3.50;;;2.53;;
17510;SDS011;8873;48.818;9.422;2022-07-04T09:55:13;4.75;;;2.45;;
17510;SDS011;8873;48.818;9.422;2022-07-04T09:57:48;4.25;;;2.40;;
17510;SDS011;8873;48.818;9.422;2022-07-04T10:00:17;6.63;;;2.42;;
17510;SDS011;8873;48.818;9.422;2022-07-04T10:02:47;3.08;;;2.88;;
17510;SDS011;8873;48.818;9.422;2022-07-04T10:05:20;3.13;;;2.17;;
17510;SDS011;8873;48.818;9.422;2022-07-04T10:07:48;10.88;;;3.25;;
17510;SDS011;8873;48.818;9.422;2022-07-04T10:10:25;4.80;;;2.30;;
17510;SDS011;8873;48.818;9.422;2022-07-04T10:12:54;2.83;;;2.05;;
17510;SDS011;8873;48.818;9.422;2022-07-04T10:15:22;2.38;;;2.17;;
17510;SDS011;8873;48.818;9.422;2022-07-04T10:17:51;2.30;;;2.05;;
17510;SDS011;8873;48.818;9.422;2022-07-04T10:20:19;5.20;;;2.30;;
17510;SDS011;8873;48.818;9.422;2022-07-04T10:22:47;2.40;;;2.20;;
17510;SDS011;8873;48.818;9.422;2022-07-04T10:25:17;4.50;;;2.45;;
17510;SDS011;8873;48.818;9.422;2022-07-04T10:27:46;4.57;;;2.05;;
17510;SDS011;8873;48.818;9.422;2022-07-04T10:30:20;4.22;;;2.20;;
17510;SDS011;8873;48.818;9.422;2022-07-04T10:32:49;2.30;;;2.10;;
17510;SDS011;8873;48.818;9.422;2022-07-04T10:35:18;5.18;;;2.30;;
17510;SDS011;8873;48.818;9.422;2022-07-04T10:38:06;4.00;;;2.10;;
17510;SDS011;8873;48.818;9.422;2022-07-04T10:40:41;2.17;;;2.08;;
17510;SDS011;8873;48.818;9.422;2022-07-04T10:48:49;6.22;;;2.08;;
17510;SDS011;8873;48.818;9.422;2022-07-04T10:51:29;2.78;;;2.00;;
17510;SDS011;8873;48.818;9.422;2022-07-04T10:53:59;1.92;;;1.83;;
17510;SDS011;8873;48.818;9.422;2022-07-04T10:56:39;5.40;;;1.85;;
17510;SDS011;8873;48.818;9.422;2022-07-04T10:59:08;3.80;;;2.08;;
17510;SDS011;8873;48.818;9.422;2022-07-04T11:01:46;3.60;;;2.00;;
17510;SDS011;8873;48.818;9.422;2022-07-04T11:04:45;2.85;;;1.80;;
17510;SDS011;8873;48.818;9.422;2022-07-04T11:07:15;1.90;;;1.80;;
17510;SDS011;8873;48.818;9.422;2022-07-04T11:09:44;2.63;;;1.80;;
17510;SDS011;8873;48.818;9.422;2022-07-04T11:12:13;2.78;;;1.70;;
17510;SDS011;8873;48.818;9.422;2022-07-04T11:14:42;2.17;;;1.70;;
17510;SDS011;8873;48.818;9.422;2022-07-04T11:17:10;2.10;;;1.90;;
17510;SDS011;8873;48.818;9.422;2022-07-04T11:19:43;1.98;;;1.77;;
17510;SDS011;8873;48.818;9.422;2022-07-04T11:22:21;3.17;;;1.75;;
17510;SDS011;8873;48.818;9.422;2022-07-04T11:24:49;3.05;;;2.10;;
17510;SDS011;8873;48.818;9.422;2022-07-04T11:27:17;1.95;;;1.80;;
17510;SDS011;8873;48.818;9.422;2022-07-04T11:29:48;1.88;;;1.77;;
17510;SDS011;8873;48.818;9.422;2022-07-04T11:32:16;3.42;;;1.80;;
17510;SDS011;8873;48.818;9.422;2022-07-04T11:34:44;2.15;;;1.70;;
17510;SDS011;8873;48.818;9.422;2022-07-04T11:37:13;3.28;;;1.63;;
17510;SDS011;8873;48.818;9.422;2022-07-04T11:39:41;2.88;;;1.63;;
17510;SDS011;8873;48.818;9.422;2022-07-04T11:42:09;2.17;;;1.83;;
17510;SDS011;8873;48.818;9.422;2022-07-04T11:44:54;2.05;;;1.95;;
17510;SDS011;8873;48.818;9.422;2022-07-04T11:47:32;4.75;;;2.00;;
17510;SDS011;8873;48.818;9.422;2022-07-04T11:50:00;3.60;;;1.65;;
17510;SDS011;8873;48.818;9.422;2022-07-04T11:52:30;2.15;;;1.98;;
17510;SDS011;8873;48.818;9.422;2022-07-04T11:55:20;1.73;;;1.63;;
17510;SDS011;8873;48.818;9.422;2022-07-04T11:57:49;2.33;;;1.63;;
17510;SDS011;8873;48.818;9.422;2022-07-04T12:00:19;3.55;;;1.90;;
17510;SDS011;8873;48.818;9.422;2022-07-04T12:02:47;2.10;;;2.00;;
17510;SDS011;8873;48.818;9.422;2022-07-04T12:05:16;1.88;;;1.75;;
17510;SDS011;8873;48.818;9.422;2022-07-04T12:07:46;1.73;;;1.63;;
17510;SDS011;8873;48.818;9.422;2022-07-04T12:10:34;1.90;;;1.80;;
17510;SDS011;8873;48.818;9.422;2022-07-04T12:13:03;4.15;;;2.03;;
17510;SDS011;8873;48.818;9.422;2022-07-04T12:15:35;1.65;;;1.60;;
17510;SDS011;8873;48.818;9.422;2022-07-04T12:18:04;3.00;;;2.10;;
17510;SDS011;8873;48.818;9.422;2022-07-04T12:20:33;3.85;;;1.80;;
17510;SDS011;8873;48.818;9.422;2022-07-04T12:23:02;1.80;;;1.70;;
17510;SDS011;8873;48.818;9.422;2022-07-04T12:25:31;2.10;;;1.98;;
17510;SDS011;8873;48.818;9.422;2022-07-04T12:28:05;3.22;;;1.90;;
17510;SDS011;8873;48.818;9.422;2022-07-04T12:30:33;1.90;;;1.90;;
17510;SDS011;8873;48.818;9.422;2022-07-04T12:33:03;4.43;;;1.73;;
17510;SDS011;8873;48.818;9.422;2022-07-04T12:35:34;4.38;;;1.88;;
17510;SDS011;8873;48.818;9.422;2022-07-04T12:38:04;4.20;;;1.88;;
17510;SDS011;8873;48.818;9.422;2022-07-04T12:40:32;2.30;;;2.00;;
17510;SDS011;8873;48.818;9.422;2022-07-04T12:43:05;2.90;;;1.73;;
17510;SDS011;8873;48.818;9.422;2022-07-04T12:45:43;1.95;;;1.73;;
17510;SDS011;8873;48.818;9.422;2022-07-04T12:48:16;4.88;;;2.00;;
17510;SDS011;8873;48.818;9.422;2022-07-04T12:50:44;7.90;;;2.00;;
17510;SDS011;8873;48.818;9.422;2022-07-04T12:53:13;4.75;;;2.03;;
17510;SDS011;8873;48.818;9.422;2022-07-04T12:55:41;3.83;;;2.05;;
17510;SDS011;8873;48.818;9.422;2022-07-04T12:58:09;2.30;;;1.92;;
17510;SDS011;8873;48.818;9.422;2022-07-04T13:00:37;2.13;;;1.90;;
17510;SDS011;8873;48.818;9.422;2022-07-04T13:03:06;2.65;;;1.58;;
17510;SDS011;8873;48.818;9.422;2022-07-04T13:05:34;4.53;;;1.65;;
17510;SDS011;8873;48.818;9.422;2022-07-04T13:08:03;3.30;;;1.85;;
17510;SDS011;8873;48.818;9.422;2022-07-04T13:10:33;3.72;;;1.80;;
17510;SDS011;8873;48.818;9.422;2022-07-04T13:13:00;2.22;;;1.92;;
17510;SDS011;8873;48.818;9.422;2022-07-04T13:15:28;5.32;;;2.10;;
17510;SDS011;8873;48.818;9.422;2022-07-04T13:17:56;2.00;;;1.90;;
17510;SDS011;8873;48.818;9.422;2022-07-04T13:20:24;2.88;;;1.77;;
17510;SDS011;8873;48.818;9.422;2022-07-04T13:22:52;4.68;;;2.00;;
17510;SDS011;8873;48.818;9.422;2022-07-04T13:25:20;2.28;;;1.80;;
17510;SDS011;8873;48.818;9.422;2022-07-04T13:27:49;2.10;;;1.90;;
17510;SDS011;8873;48.818;9.422;2022-07-04T13:30:17;2.35;;;1.60;;
17510;SDS011;8873;48.818;9.422;2022-07-04T13:32:45;7.72;;;1.80;;
17510;SDS011;8873;48.818;9.422;2022-07-04T13:35:13;1.95;;;1.70;;
17510;SDS011;8873;48.818;9.422;2022-07-04T13:37:41;2.85;;;1.95;;
17510;SDS011;8873;48.818;9.422;2022-07-04T13:40:09;3.65;;;1.83;;
17510;SDS011;8873;48.818;9.422;2022-07-04T13:42:36;2.25;;;1.75;;
17510;SDS011;8873;48.818;9.422;2022-07-04T13:45:23;1.92;;;1.75;;
17510;SDS011;8873;48.818;9.422;2022-07-04T13:47:51;4.55;;;1.75;;
17510;SDS011;8873;48.818;9.422;2022-07-04T13:50:20;3.10;;;2.05;;
17510;SDS011;8873;48.818;9.422;2022-07-04T13:52:49;7.60;;;1.85;;
17510;SDS011;8873;48.818;9.422;2022-07-04T13:55:17;3.58;;;2.10;;
17510;SDS011;8873;48.818;9.422;2022-07-04T13:57:45;4.93;;;1.77;;
17510;SDS011;8873;48.818;9.422;2022-07-04T14:00:13;1.80;;;1.70;;
17510;SDS011;8873;48.818;9.422;2022-07-04T14:02:42;2.33;;;1.90;;
17510;SDS011;8873;48.818;9.422;2022-07-04T14:05:10;2.80;;;1.60;;
17510;SDS011;8873;48.818;9.422;2022-07-04T14:07:38;1.60;;;1.50;;
17510;SDS011;8873;48.818;9.422;2022-07-04T14:10:05;13.93;;;2.88;;
17510;SDS011;8873;48.818;9.422;2022-07-04T14:12:33;2.53;;;1.83;;
17510;SDS011;8873;48.818;9.422;2022-07-04T14:15:01;3.58;;;1.75;;
17510;SDS011;8873;48.818;9.422;2022-07-04T14:17:29;2.00;;;1.88;;
17510;SDS011;8873;48.818;9.422;2022-07-04T14:20:03;3.45;;;1.90;;
17510;SDS011;8873;48.818;9.422;2022-07-04T14:22:35;3.10;;;1.70;;
17510;SDS011;8873;48.818;9.422;2022-07-04T14:25:03;1.90;;;1.80;;
17510;SDS011;8873;48.818;9.422;2022-07-04T14:27:30;2.63;;;1.80;;
17510;SDS011;8873;48.818;9.422;2022-07-04T14:29:58;2.50;;;1.90;;
17510;SDS011;8873;48.818;9.422;2022-07-04T14:32:26;4.38;;;1.80;;
17510;SDS011;8873;48.818;9.422;2022-07-04T14:34:54;3.22;;;1.70;;
17510;SDS011;8873;48.818;9.422;2022-07-04T14:37:23;7.43;;;1.77;;
17510;SDS011;8873;48.818;9.422;2022-07-04T14:39:50;1.98;;;1.85;;
17510;SDS011;8873;48.818;9.422;2022-07-04T14:42:18;1.80;;;1.70;;
17510;SDS011;8873;48.818;9.422;2022-07-04T14:44:46;3.33;;;1.80;;
17510;SDS011;8873;48.818;9.422;2022-07-04T14:47:14;2.15;;;1.95;;
17510;SDS011;8873;48.818;9.422;2022-07-04T14:49:45;2.92;;;1.88;;
17510;SDS011;8873;48.818;9.422;2022-07-04T14:52:13;2.03;;;1.80;;
17510;SDS011;8873;48.818;9.422;2022-07-04T14:54:42;2.83;;;1.90;;
17510;SDS011;8873;48.818;9.422;2022-07-04T14:57:09;1.90;;;1.80;;
17510;SDS011;8873;48.818;9.422;2022-07-04T14:59:38;1.92;;;1.75;;
17510;SDS011;8873;48.818;9.422;2022-07-04T15:02:06;3.92;;;1.75;;
17510;SDS011;8873;48.818;9.422;2022-07-04T15:04:34;2.00;;;1.83;;
17510;SDS011;8873;48.818;9.422;2022-07-04T15:07:03;3.83;;;1.80;;
17510;SDS011;8873;48.818;9.422;2022-07-04T15:09:30;4.35;;;1.83;;
17510;SDS011;8873;48.818;9.422;2022-07-04T15:12:01;1.65;;;1.60;;
17510;SDS011;8873;48.818;9.422;2022-07-04T15:14:29;2.45;;;1.90;;
17510;SDS011;8873;48.818;9.422;2022-07-04T15:16:57;1.98;;;1.80;;
17510;SDS011;8873;48.818;9.422;2022-07-04T15:19:24;1.98;;;1.70;;
17510;SDS011;8873;48.818;9.422;2022-07-04T15:21:52;2.47;;;1.65;;